Time;durP1;ratioP1;P1;durP2;ratioP2;P2;SDS_P1;SDS_P2;PMS_P1;PMS_P2;Temp;Humidity;BMP_temperature;BMP_pressure;BME280_temperature;BME280_humidity;BME280_pressure;Samples;Min_cycle;Max_cycle;Signal;HPM_P1;HPM_P2
2023/01/29 00:01:34;;;;;;;8.05;6.63;;;1.20;99.90;;;;;;5045655;28;20261;-75
2023/01/29 00:04:01;;;;;;;10.18;7.70;;;1.20;99.90;;;;;;5047254;28;20233;-75
2023/01/29 00:06:29;;;;;;;7.75;7.05;;;1.10;99.90;;;;;;5042540;28;20309;-75
2023/01/29 00:08:57;;;;;;;7.80;7.10;;;1.10;99.90;;;;;;5061786;28;20214;-75
2023/01/29 00:11:24;;;;;;;9.13;8.07;;;1.10;99.90;;;;;;5047851;28;20249;-75
2023/01/29 00:13:51;;;;;;;7.80;7.00;;;1.00;99.90;;;;;;5042495;28;20201;-75
2023/01/29 00:16:18;;;;;;;8.27;7.57;;;1.00;99.90;;;;;;5044945;28;20266;-74
2023/01/29 00:18:45;;;;;;;7.75;6.95;;;1.00;99.90;;;;;;5046434;28;20309;-75
2023/01/29 00:21:14;;;;;;;7.70;6.90;;;1.00;99.90;;;;;;5045435;28;20310;-75
2023/01/29 00:23:43;;;;;;;7.32;6.70;;;1.00;99.90;;;;;;5045163;28;20241;-75
2023/01/29 00:26:10;;;;;;;8.02;7.22;;;1.00;99.90;;;;;;5041213;28;20315;-75
2023/01/29 00:28:37;;;;;;;7.88;7.10;;;1.00;99.90;;;;;;5045993;28;20229;-76
2023/01/29 00:31:08;;;;;;;7.28;6.57;;;1.00;99.90;;;;;;5039376;28;20697;-75
2023/01/29 00:33:35;;;;;;;7.85;7.13;;;1.00;99.90;;;;;;5042097;28;20817;-75
2023/01/29 00:36:03;;;;;;;8.10;7.00;;;1.00;99.90;;;;;;5045081;28;20788;-75
2023/01/29 00:38:30;;;;;;;7.93;7.22;;;1.00;99.90;;;;;;5045899;28;20211;-75
2023/01/29 00:46:34;;;;;;;7.85;7.15;;;0.90;99.90;;;;;;5041119;28;20264;-75
2023/01/29 00:49:01;;;;;;;7.07;6.38;;;0.90;99.90;;;;;;5045341;28;20647;-75
2023/01/29 00:51:28;;;;;;;8.13;7.40;;;0.90;99.90;;;;;;5041148;28;20886;-75
2023/01/29 00:53:57;;;;;;;8.40;7.68;;;0.90;99.90;;;;;;5045169;28;20252;-75
2023/01/29 00:56:25;;;;;;;7.90;7.13;;;0.90;99.90;;;;;;5044097;28;20226;-75
2023/01/29 00:58:52;;;;;;;7.50;6.80;;;0.90;99.90;;;;;;5042681;28;20785;-75
2023/01/29 01:03:04;;;;;;;7.20;6.53;;;0.80;99.90;;;;;;5041427;28;20313;-75
2023/01/29 01:04:06;;;;;;;7.50;6.72;;;0.80;99.90;;;;;;5081781;23;20235;-74
2023/01/29 01:06:34;;;;;;;7.30;6.60;;;0.80;99.90;;;;;;5038640;28;20223;-74
2023/01/29 01:11:47;;;;;;;6.65;6.05;;;0.70;99.90;;;;;;5024490;28;20268;-74
2023/01/29 01:14:14;;;;;;;7.30;6.70;;;0.70;99.90;;;;;;5024949;28;20299;-74
2023/01/29 01:16:41;;;;;;;7.80;7.10;;;0.70;99.90;;;;;;5031775;28;20261;-74
2023/01/29 01:19:08;;;;;;;7.60;7.00;;;0.60;99.90;;;;;;5027236;28;20839;-74
2023/01/29 01:21:35;;;;;;;7.60;7.00;;;0.60;99.90;;;;;;5025022;28;20220;-75
2023/01/29 01:24:04;;;;;;;10.65;8.23;;;0.60;99.90;;;;;;5007246;28;20894;-76
2023/01/29 01:26:32;;;;;;;8.05;7.35;;;0.50;99.90;;;;;;5025378;28;20219;-76
2023/01/29 01:29:00;;;;;;;7.65;6.95;;;0.50;99.90;;;;;;5029241;28;22151;-76
2023/01/29 01:31:27;;;;;;;7.25;6.55;;;0.40;99.90;;;;;;5029145;28;20265;-76
2023/01/29 01:33:55;;;;;;;7.30;6.63;;;0.40;99.90;;;;;;5030318;28;20291;-76
2023/01/29 01:36:23;;;;;;;8.50;7.57;;;0.40;99.90;;;;;;5026398;28;20247;-75
2023/01/29 01:38:50;;;;;;;7.00;6.35;;;0.30;99.90;;;;;;5026331;28;20298;-76
2023/01/29 01:41:18;;;;;;;7.47;6.85;;;0.30;99.90;;;;;;5027662;28;20762;-75
2023/01/29 01:43:50;;;;;;;9.90;8.23;;;0.30;99.90;;;;;;5030094;28;20353;-75
2023/01/29 01:46:19;;;;;;;8.82;7.93;;;0.30;99.90;;;;;;5026075;28;20327;-74
2023/01/29 01:48:51;;;;;;;6.82;6.20;;;0.20;99.90;;;;;;5024750;28;20287;-76
2023/01/29 01:51:19;;;;;;;7.63;6.93;;;0.30;99.90;;;;;;5023602;28;20680;-74
2023/01/29 01:53:55;;;;;;;6.82;6.18;;;0.30;99.90;;;;;;5019813;28;20283;-75
2023/01/29 01:56:27;;;;;;;7.78;7.07;;;0.30;99.90;;;;;;5025489;28;20322;-75
2023/01/29 01:58:56;;;;;;;7.00;6.40;;;0.30;99.90;;;;;;5024468;28;20223;-75
2023/01/29 02:01:27;;;;;;;7.45;6.75;;;0.30;99.90;;;;;;5028027;28;20764;-76
2023/01/29 02:09:33;;;;;;;7.47;6.78;;;0.30;99.90;;;;;;5018206;28;20780;-75
2023/01/29 02:12:01;;;;;;;6.50;5.95;;;0.30;99.90;;;;;;5023802;28;20909;-75
2023/01/29 02:14:30;;;;;;;7.15;6.55;;;0.30;99.90;;;;;;5027512;28;20291;-75
2023/01/29 02:17:00;;;;;;;7.10;6.50;;;0.30;99.90;;;;;;5026522;28;20658;-76
2023/01/29 02:19:39;;;;;;;6.72;6.13;;;0.30;99.90;;;;;;5023287;28;20310;-76
2023/01/29 02:22:28;;;;;;;7.35;6.75;;;0.30;99.90;;;;;;5024010;28;20278;-75
2023/01/29 02:25:09;;;;;;;7.55;6.85;;;0.30;99.90;;;;;;5025641;28;20302;-75
2023/01/29 02:28:00;;;;;;;7.55;6.85;;;0.30;99.90;;;;;;5030593;28;20740;-75
2023/01/29 02:30:36;;;;;;;7.30;6.68;;;0.30;99.90;;;;;;5032183;28;20262;-75
2023/01/29 02:33:11;;;;;;;6.70;6.20;;;0.20;99.90;;;;;;5025569;28;20279;-75
2023/01/29 02:35:42;;;;;;;6.68;6.10;;;0.20;99.90;;;;;;5028485;28;20310;-75
2023/01/29 02:38:17;;;;;;;6.70;6.20;;;0.20;99.90;;;;;;5031151;28;20318;-76
2023/01/29 02:40:50;;;;;;;7.07;6.47;;;0.20;99.90;;;;;;5026432;28;20743;-76
2023/01/29 02:43:29;;;;;;;6.95;6.28;;;0.20;99.90;;;;;;5026010;28;20744;-76
2023/01/29 02:46:06;;;;;;;5.88;5.38;;;0.20;99.90;;;;;;5014955;28;20306;-76
2023/01/29 02:48:41;;;;;;;6.60;6.10;;;0.20;99.90;;;;;;5025437;28;20626;-76
2023/01/29 02:51:14;;;;;;;7.47;6.88;;;0.20;99.90;;;;;;5019154;28;20265;-75
2023/01/29 02:53:49;;;;;;;7.38;6.78;;;0.20;99.90;;;;;;5036540;28;20242;-74
2023/01/29 02:56:20;;;;;;;6.45;5.85;;;0.20;99.90;;;;;;5007514;28;20223;-74
2023/01/29 02:58:53;;;;;;;6.38;5.85;;;0.20;99.90;;;;;;5025928;28;20326;-74
2023/01/29 03:01:29;;;;;;;6.40;5.90;;;0.20;99.90;;;;;;5025619;28;20302;-73
2023/01/29 03:04:01;;;;;;;6.07;5.57;;;0.10;99.90;;;;;;5024673;28;20658;-75
2023/01/29 03:06:33;;;;;;;6.43;5.93;;;0.10;99.90;;;;;;5023483;28;20306;-75
2023/01/29 03:09:04;;;;;;;6.45;5.95;;;0.10;99.90;;;;;;5013910;28;20729;-75
2023/01/29 03:11:36;;;;;;;6.10;5.60;;;0.10;99.90;;;;;;5025101;28;20306;-75
2023/01/29 03:14:07;;;;;;;6.15;5.65;;;0.10;99.90;;;;;;5026736;28;21134;-75
2023/01/29 03:16:40;;;;;;;6.47;5.97;;;0.10;99.90;;;;;;5003633;28;20785;-75
2023/01/29 03:19:11;;;;;;;6.40;5.90;;;0.10;99.90;;;;;;5021811;28;20665;-75
2023/01/29 03:21:54;;;;;;;6.55;5.70;;;0.10;99.90;;;;;;5030882;28;20298;-76
2023/01/29 03:32:50;;;;;;;6.03;5.63;;;0.10;99.90;;;;;;5010617;28;20201;-76
2023/01/29 03:35:35;;;;;;;6.05;5.55;;;0.10;99.90;;;;;;5028287;28;20735;-76
2023/01/29 03:38:03;;;;;;;6.18;5.68;;;0.00;99.90;;;;;;5034786;28;20354;-76
2023/01/29 03:40:37;;;;;;;6.25;5.75;;;0.00;99.90;;;;;;5029448;28;20886;-76
2023/01/29 03:43:11;;;;;;;6.05;5.57;;;0.00;99.90;;;;;;5032348;28;20634;-76
2023/01/29 03:45:43;;;;;;;6.07;5.60;;;-0.10;99.90;;;;;;5033939;28;20314;-76
2023/01/29 03:48:22;;;;;;;5.60;5.20;;;-0.10;99.90;;;;;;5033748;28;20640;-74
2023/01/29 03:50:57;;;;;;;6.70;6.20;;;-0.10;99.90;;;;;;5010430;28;20302;-75
2023/01/29 03:53:31;;;;;;;6.20;5.70;;;-0.10;99.90;;;;;;5014667;28;20197;-75
2023/01/29 03:56:02;;;;;;;6.78;6.18;;;-0.10;99.90;;;;;;5034814;28;20310;-75
2023/01/29 03:58:37;;;;;;;6.75;6.25;;;-0.20;99.90;;;;;;5035193;28;20221;-75
2023/01/29 04:01:11;;;;;;;6.22;5.72;;;-0.20;99.90;;;;;;5010690;28;20712;-74
2023/01/29 04:03:43;;;;;;;6.88;6.28;;;-0.20;99.90;;;;;;5030378;28;20231;-74
2023/01/29 04:06:13;;;;;;;5.43;4.93;;;-0.20;99.90;;;;;;5013040;28;20231;-75
2023/01/29 04:08:51;;;;;;;7.38;6.78;;;-0.20;99.90;;;;;;5009947;28;20200;-75
2023/01/29 04:11:20;;;;;;;6.30;5.80;;;-0.30;99.90;;;;;;5027721;28;20298;-75
2023/01/29 04:13:48;;;;;;;6.47;5.97;;;-0.30;99.90;;;;;;5029209;28;20286;-74
2023/01/29 04:16:20;;;;;;;5.65;5.18;;;-0.30;99.90;;;;;;5027762;28;20314;-73
2023/01/29 04:18:50;;;;;;;6.28;5.75;;;-0.30;99.90;;;;;;5011590;28;20776;-74
2023/01/29 04:21:18;;;;;;;5.95;5.55;;;-0.30;99.90;;;;;;5028499;28;20211;-74
2023/01/29 04:23:46;;;;;;;5.20;4.80;;;-0.30;99.90;;;;;;5030248;28;20209;-75
2023/01/29 04:26:29;;;;;;;7.05;6.47;;;-0.30;99.90;;;;;;5012597;28;20578;-74
2023/01/29 04:29:10;;;;;;;6.32;5.78;;;-0.30;99.90;;;;;;5032357;28;20275;-73
2023/01/29 04:31:45;;;;;;;5.47;5.07;;;-0.30;99.90;;;;;;5018045;28;20226;-74
2023/01/29 04:34:23;;;;;;;5.90;5.40;;;-0.30;99.90;;;;;;5028528;28;20281;-75
2023/01/29 04:37:02;;;;;;;5.80;5.40;;;-0.40;99.90;;;;;;5030740;28;20298;-74
2023/01/29 04:39:36;;;;;;;6.70;6.20;;;-0.40;99.90;;;;;;5030849;28;20625;-75
2023/01/29 04:42:12;;;;;;;5.82;5.43;;;-0.40;99.90;;;;;;5030660;28;20236;-75
2023/01/29 04:44:43;;;;;;;5.35;4.95;;;-0.50;99.90;;;;;;5024795;28;20309;-75
2023/01/29 04:47:22;;;;;;;6.03;5.53;;;-0.50;99.90;;;;;;5029065;28;20211;-75
2023/01/29 04:49:59;;;;;;;6.30;5.78;;;-0.50;99.90;;;;;;5007786;28;20727;-75
2023/01/29 04:52:37;;;;;;;6.40;5.97;;;-0.50;99.90;;;;;;5024864;28;20724;-75
2023/01/29 04:55:09;;;;;;;6.60;6.10;;;-0.50;99.90;;;;;;5032617;28;20303;-75
2023/01/29 04:57:46;;;;;;;6.25;5.75;;;-0.50;99.90;;;;;;5025185;28;20765;-74
2023/01/29 05:00:17;;;;;;;5.60;5.20;;;-0.50;99.90;;;;;;5031610;28;20309;-74
2023/01/29 05:02:46;;;;;;;6.47;5.97;;;-0.50;99.90;;;;;;5029173;28;20285;-74
2023/01/29 05:05:18;;;;;;;5.97;5.57;;;-0.50;99.90;;;;;;5035922;28;20704;-73
2023/01/29 05:07:47;;;;;;;5.95;5.55;;;-0.50;99.90;;;;;;5027925;28;20671;-73
2023/01/29 05:10:17;;;;;;;5.55;5.15;;;-0.50;99.90;;;;;;5006939;28;20233;-75
2023/01/29 05:12:49;;;;;;;5.63;5.22;;;-0.50;99.90;;;;;;5008592;28;20214;-74
2023/01/29 05:15:20;;;;;;;5.28;4.88;;;-0.60;99.90;;;;;;5012429;28;20219;-73
2023/01/29 05:17:46;;;;;;;5.10;4.80;;;-0.60;99.90;;;;;;5027740;28;20302;-75
2023/01/29 05:20:15;;;;;;;5.35;4.95;;;-0.60;99.90;;;;;;5033527;28;20305;-75
2023/01/29 05:22:44;;;;;;;4.45;4.15;;;-0.50;99.90;;;;;;5031670;28;20203;-75
2023/01/29 05:25:22;;;;;;;5.38;4.97;;;-0.50;99.90;;;;;;5025126;28;20293;-74
2023/01/29 05:28:05;;;;;;;4.80;4.50;;;-0.50;99.90;;;;;;5028606;28;20326;-74
2023/01/29 05:30:34;;;;;;;4.90;4.60;;;-0.50;99.90;;;;;;5025185;28;20214;-75
2023/01/29 05:33:02;;;;;;;5.63;5.22;;;-0.50;99.90;;;;;;5026532;28;20279;-75
2023/01/29 05:35:31;;;;;;;5.43;5.03;;;-0.50;99.90;;;;;;5011537;28;20322;-75
2023/01/29 05:37:58;;;;;;;6.25;5.75;;;-0.60;99.90;;;;;;5026107;28;20227;-76
2023/01/29 05:40:26;;;;;;;5.00;4.60;;;-0.60;99.90;;;;;;5029956;28;20319;-74
2023/01/29 05:42:52;;;;;;;5.70;5.20;;;-0.60;99.90;;;;;;5011031;28;20205;-73
2023/01/29 05:45:20;;;;;;;5.28;4.97;;;-0.60;99.90;;;;;;5021848;28;20365;-76
2023/01/29 05:47:47;;;;;;;5.35;4.97;;;-0.60;99.90;;;;;;5019036;28;20306;-73
2023/01/29 05:50:15;;;;;;;5.88;5.47;;;-0.60;99.90;;;;;;5028132;28;20305;-73
2023/01/29 05:52:44;;;;;;;4.90;4.60;;;-0.60;99.90;;;;;;5014349;28;20199;-74
2023/01/29 05:55:11;;;;;;;4.32;4.05;;;-0.60;99.90;;;;;;5022145;28;20327;-74
2023/01/29 05:57:40;;;;;;;6.20;5.70;;;-0.60;99.90;;;;;;5012024;28;20207;-73
2023/01/29 06:00:09;;;;;;;5.50;5.10;;;-0.60;99.90;;;;;;5008969;28;20227;-75
2023/01/29 06:02:36;;;;;;;5.70;5.20;;;-0.70;99.90;;;;;;5032639;28;20628;-75
2023/01/29 06:05:04;;;;;;;5.72;5.32;;;-0.70;99.90;;;;;;5027369;28;20302;-76
2023/01/29 06:07:31;;;;;;;6.68;6.07;;;-0.70;99.90;;;;;;5018017;28;20211;-76
2023/01/29 06:09:59;;;;;;;6.72;6.13;;;-0.70;99.90;;;;;;5027438;28;20314;-75
2023/01/29 06:12:27;;;;;;;6.18;5.68;;;-0.70;99.90;;;;;;5034722;28;20268;-75
2023/01/29 06:14:54;;;;;;;7.28;6.68;;;-0.80;99.90;;;;;;5003028;28;20307;-75
2023/01/29 06:17:21;;;;;;;7.03;6.53;;;-0.80;99.90;;;;;;5030060;28;20305;-75
2023/01/29 06:19:48;;;;;;;5.80;5.40;;;-0.80;99.90;;;;;;5030179;28;20310;-75
2023/01/29 06:22:15;;;;;;;5.90;5.50;;;-0.80;99.90;;;;;;5028317;28;20334;-75
2023/01/29 06:24:42;;;;;;;6.30;5.80;;;-0.80;99.90;;;;;;5028689;28;20314;-75
2023/01/29 06:27:11;;;;;;;6.18;5.75;;;-0.80;99.90;;;;;;5038845;28;20301;-75
2023/01/29 06:29:38;;;;;;;6.28;5.78;;;-0.80;99.90;;;;;;5011738;28;20294;-75
2023/01/29 06:32:05;;;;;;;6.65;6.15;;;-0.80;99.90;;;;;;5025257;28;20204;-75
2023/01/29 06:34:32;;;;;;;6.22;5.68;;;-0.80;99.90;;;;;;5021654;28;20250;-75
2023/01/29 06:36:59;;;;;;;6.30;5.80;;;-0.80;99.90;;;;;;5026763;28;20318;-75
2023/01/29 06:39:26;;;;;;;6.18;5.75;;;-0.80;99.90;;;;;;5022075;28;20247;-75
2023/01/29 06:41:53;;;;;;;5.95;5.45;;;-0.80;99.90;;;;;;5023257;28;20290;-75
2023/01/29 06:44:22;;;;;;;6.13;5.72;;;-0.80;99.90;;;;;;5030182;28;20285;-75
2023/01/29 06:46:49;;;;;;;6.47;5.97;;;-0.80;99.90;;;;;;5030483;28;20310;-75
2023/01/29 06:49:16;;;;;;;5.78;5.35;;;-0.80;99.90;;;;;;5032712;28;20638;-75
2023/01/29 06:51:43;;;;;;;5.35;4.95;;;-0.80;99.90;;;;;;5031575;28;20237;-75
2023/01/29 06:54:11;;;;;;;6.13;5.72;;;-0.80;99.90;;;;;;5037620;28;20287;-75
2023/01/29 06:56:38;;;;;;;5.07;4.68;;;-0.70;99.90;;;;;;5032669;28;20250;-74
2023/01/29 06:59:05;;;;;;;6.13;5.60;;;-0.70;99.90;;;;;;5035516;28;20319;-74
2023/01/29 07:01:33;;;;;;;6.40;6.00;;;-0.70;99.90;;;;;;5033045;28;20234;-74
2023/01/29 07:04:00;;;;;;;6.70;6.20;;;-0.70;99.90;;;;;;5030008;28;20291;-74
2023/01/29 07:06:28;;;;;;;5.10;4.80;;;-0.70;99.90;;;;;;5028624;28;20346;-74
2023/01/29 07:08:56;;;;;;;7.00;6.40;;;-0.70;99.90;;;;;;5036843;28;20192;-74
2023/01/29 07:11:23;;;;;;;8.15;7.45;;;-0.70;99.90;;;;;;5037761;28;20211;-74
2023/01/29 07:13:50;;;;;;;11.60;10.30;;;-0.70;99.90;;;;;;5037186;28;20290;-74
2023/01/29 07:16:17;;;;;;;9.35;8.32;;;-0.70;99.90;;;;;;5029973;28;20657;-74
2023/01/29 07:18:46;;;;;;;9.68;8.70;;;-0.70;99.90;;;;;;5035034;28;20724;-74
2023/01/29 07:21:13;;;;;;;8.25;7.45;;;-0.70;99.90;;;;;;5029937;28;20306;-74
2023/01/29 07:23:41;;;;;;;8.77;7.97;;;-0.60;99.90;;;;;;5029647;28;20299;-74
2023/01/29 07:26:08;;;;;;;9.35;8.18;;;-0.60;99.90;;;;;;5016711;28;20225;-74
2023/01/29 07:28:36;;;;;;;9.65;8.73;;;-0.60;99.90;;;;;;5035897;28;20998;-74
2023/01/29 07:31:04;;;;;;;9.60;8.13;;;-0.60;99.90;;;;;;5031474;28;20231;-74
2023/01/29 07:33:32;;;;;;;9.05;8.18;;;-0.50;99.90;;;;;;5020290;28;20311;-74
2023/01/29 07:36:00;;;;;;;9.00;8.10;;;-0.50;99.90;;;;;;5016994;28;20600;-75
2023/01/29 07:38:27;;;;;;;9.70;8.70;;;-0.50;99.90;;;;;;5009486;28;20207;-74
2023/01/29 07:40:54;;;;;;;9.57;8.57;;;-0.50;99.90;;;;;;5029006;28;20307;-74
2023/01/29 07:43:23;;;;;;;9.98;9.07;;;-0.60;99.90;;;;;;5037156;28;20287;-74
2023/01/29 07:45:50;;;;;;;7.72;7.03;;;-0.60;99.90;;;;;;5039473;28;20223;-75
2023/01/29 07:48:18;;;;;;;8.73;7.93;;;-0.60;99.90;;;;;;5023808;28;20299;-75
2023/01/29 07:50:45;;;;;;;7.80;7.20;;;-0.60;99.90;;;;;;5035401;28;20223;-75
2023/01/29 07:53:15;;;;;;;6.97;6.40;;;-0.50;99.90;;;;;;5029182;28;20744;-75
2023/01/29 07:55:44;;;;;;;7.30;6.70;;;-0.60;99.90;;;;;;5026227;28;20243;-75
2023/01/29 07:58:12;;;;;;;6.25;5.75;;;-0.50;99.90;;;;;;5034584;28;20222;-75
2023/01/29 08:00:39;;;;;;;6.40;5.90;;;-0.50;99.90;;;;;;5038803;28;20313;-75
2023/01/29 08:03:10;;;;;;;6.93;6.32;;;0.00;99.90;;;;;;5003204;28;20283;-75
2023/01/29 08:05:37;;;;;;;6.97;6.47;;;0.80;99.90;;;;;;5032740;28;20287;-75
2023/01/29 08:08:05;;;;;;;6.50;6.00;;;1.80;99.90;;;;;;5037042;28;21156;-75
2023/01/29 08:10:34;;;;;;;5.80;5.22;;;2.80;99.90;;;;;;5015708;28;20224;-75
2023/01/29 08:13:02;;;;;;;7.30;6.70;;;3.80;99.90;;;;;;5027590;28;20290;-75
2023/01/29 08:15:30;;;;;;;6.47;6.07;;;4.50;99.90;;;;;;5028540;28;20298;-74
2023/01/29 08:17:57;;;;;;;7.28;6.57;;;4.90;99.90;;;;;;5035917;28;20306;-75
2023/01/29 08:20:24;;;;;;;6.93;6.40;;;5.40;99.90;;;;;;5037977;28;20298;-76
2023/01/29 08:22:59;;;;;;;7.70;7.10;;;5.80;99.90;;;;;;5034082;28;20283;-76
2023/01/29 08:25:26;;;;;;;7.20;6.60;;;6.30;99.90;;;;;;5034111;28;20394;-76
2023/01/29 08:27:56;;;;;;;6.78;6.18;;;6.60;99.90;;;;;;5018241;28;20270;-76
2023/01/29 08:30:23;;;;;;;6.70;6.07;;;6.80;99.90;;;;;;5030541;28;20306;-75
2023/01/29 08:32:50;;;;;;;6.85;6.03;;;7.20;99.90;;;;;;5035111;28;20283;-73
2023/01/29 08:35:17;;;;;;;6.30;5.70;;;7.30;99.90;;;;;;5029141;28;20299;-73
2023/01/29 08:37:44;;;;;;;6.82;6.15;;;7.50;99.90;;;;;;5032194;28;20299;-75
2023/01/29 08:40:12;;;;;;;6.13;5.63;;;7.70;99.90;;;;;;5024323;28;20646;-76
2023/01/29 08:42:40;;;;;;;5.95;5.45;;;8.00;99.90;;;;;;5011893;28;20200;-76
2023/01/29 08:45:10;;;;;;;6.15;5.57;;;8.10;99.90;;;;;;5034565;28;20243;-75
2023/01/29 08:47:37;;;;;;;6.30;5.70;;;8.30;99.90;;;;;;5025737;28;20748;-74
2023/01/29 08:50:05;;;;;;;6.03;5.53;;;8.60;99.90;;;;;;5022250;28;20230;-77
2023/01/29 08:52:32;;;;;;;6.63;6.03;;;8.70;99.90;;;;;;5029929;28;20323;-75
2023/01/29 08:55:00;;;;;;;6.10;5.43;;;8.70;99.90;;;;;;5009644;28;20746;-75
2023/01/29 08:57:26;;;;;;;6.32;5.72;;;8.80;99.90;;;;;;5036089;28;20302;-75
2023/01/29 08:59:53;;;;;;;6.68;5.95;;;9.10;99.90;;;;;;5036863;28;20768;-75
2023/01/29 09:02:22;;;;;;;5.88;5.38;;;9.10;99.90;;;;;;5030300;28;20369;-75
2023/01/29 09:04:49;;;;;;;6.90;6.15;;;9.10;99.90;;;;;;5036361;28;20647;-75
2023/01/29 09:07:17;;;;;;;6.55;5.93;;;9.00;99.90;;;;;;5010017;28;20223;-76
2023/01/29 09:09:43;;;;;;;6.13;5.57;;;9.00;99.90;;;;;;5030873;28;20279;-77
2023/01/29 09:12:10;;;;;;;6.40;5.90;;;9.00;99.90;;;;;;5030660;28;20286;-76
2023/01/29 09:14:37;;;;;;;5.85;5.35;;;9.10;99.90;;;;;;5032608;28;20311;-76
2023/01/29 09:17:04;;;;;;;6.57;5.97;;;9.30;99.90;;;;;;5028766;28;20310;-76
2023/01/29 09:19:33;;;;;;;6.10;5.50;;;9.50;99.90;;;;;;5029624;28;20269;-77
2023/01/29 09:22:00;;;;;;;6.18;5.57;;;9.60;99.90;;;;;;5032330;28;20223;-77
2023/01/29 09:24:27;;;;;;;6.30;5.80;;;9.50;99.90;;;;;;5010706;28;20294;-77
2023/01/29 09:26:54;;;;;;;6.05;5.38;;;9.40;99.90;;;;;;5030441;28;20748;-77
2023/01/29 09:29:21;;;;;;;6.25;5.65;;;9.20;99.90;;;;;;5030264;28;20251;-77
2023/01/29 09:31:48;;;;;;;6.85;6.25;;;9.50;99.90;;;;;;5027032;28;20234;-76
2023/01/29 09:34:15;;;;;;;5.68;5.18;;;10.30;99.90;;;;;;5010028;28;20196;-76
2023/01/29 09:36:44;;;;;;;5.78;5.18;;;11.60;99.90;;;;;;5033604;28;20326;-76
2023/01/29 09:39:11;;;;;;;7.32;6.07;;;13.10;97.00;;;;;;5032114;28;20291;-78
2023/01/29 09:41:50;;;;;;;5.97;5.38;;;14.50;92.20;;;;;;5000345;28;20596;-76
2023/01/29 09:44:24;;;;;;;6.18;5.60;;;15.50;86.70;;;;;;5028001;28;20207;-77
2023/01/29 09:46:53;;;;;;;5.88;5.30;;;16.60;80.80;;;;;;5031013;28;20226;-76
2023/01/29 09:49:25;;;;;;;6.22;5.70;;;17.20;75.00;;;;;;5028623;28;20291;-76
2023/01/29 09:51:58;;;;;;;5.90;5.40;;;16.60;73.20;;;;;;5026666;28;20195;-76
2023/01/29 09:54:30;;;;;;;6.50;5.80;;;15.30;75.30;;;;;;5010184;28;20211;-77
2023/01/29 09:56:58;;;;;;;5.90;5.40;;;14.10;77.70;;;;;;5025762;28;20330;-75
2023/01/29 09:59:30;;;;;;;5.97;5.47;;;12.80;82.00;;;;;;5016805;28;20753;-75
2023/01/29 10:02:08;;;;;;;6.03;5.40;;;11.90;84.50;;;;;;5019515;28;20314;-74
2023/01/29 10:05:06;;;;;;;6.25;5.25;;;11.30;86.10;;;;;;5026354;28;20315;-75
2023/01/29 10:08:02;;;;;;;5.50;5.10;;;10.80;87.50;;;;;;5018371;28;20338;-75
2023/01/29 10:10:43;;;;;;;6.05;5.45;;;10.30;90.50;;;;;;5025735;28;20215;-76
2023/01/29 10:13:18;;;;;;;5.78;5.28;;;10.40;91.00;;;;;;5027362;28;20252;-75
2023/01/29 10:16:02;;;;;;;5.53;5.03;;;10.10;90.90;;;;;;5021851;28;20298;-77
2023/01/29 10:18:44;;;;;;;5.65;5.10;;;9.70;91.50;;;;;;5024205;28;20275;-76
2023/01/29 10:21:32;;;;;;;5.30;4.78;;;9.50;91.90;;;;;;5023788;28;20253;-76
2023/01/29 10:24:11;;;;;;;5.20;4.70;;;9.50;91.60;;;;;;5026757;28;20195;-75
2023/01/29 10:26:40;;;;;;;5.07;4.68;;;9.60;92.30;;;;;;5025039;28;20306;-77
2023/01/29 10:29:08;;;;;;;6.22;5.05;;;9.60;92.30;;;;;;5029650;28;20224;-77
2023/01/29 10:31:39;;;;;;;5.15;4.65;;;9.70;92.00;;;;;;5036700;28;20247;-78
2023/01/29 10:34:13;;;;;;;5.25;4.85;;;9.80;91.70;;;;;;5023965;28;20322;-76
2023/01/29 10:36:44;;;;;;;5.90;5.40;;;9.70;91.90;;;;;;5012577;28;20334;-77
2023/01/29 10:39:17;;;;;;;5.90;5.40;;;9.90;90.80;;;;;;5008020;28;20286;-76
2023/01/29 10:42:04;;;;;;;5.32;4.85;;;10.10;91.40;;;;;;5030885;28;20246;-77
2023/01/29 10:44:43;;;;;;;6.15;5.55;;;9.90;91.10;;;;;;5030275;28;20215;-77
2023/01/29 10:47:28;;;;;;;4.97;4.57;;;9.40;90.60;;;;;;5029219;28;20312;-76
2023/01/29 10:50:13;;;;;;;5.47;4.97;;;9.10;92.00;;;;;;5031979;28;20599;-76
2023/01/29 10:52:56;;;;;;;5.85;5.35;;;9.20;92.10;;;;;;5038987;28;20249;-76
2023/01/29 10:55:37;;;;;;;5.30;4.70;;;9.10;92.10;;;;;;5037730;28;20265;-77
2023/01/29 10:58:17;;;;;;;5.32;4.93;;;9.20;92.40;;;;;;5029570;28;20747;-78
2023/01/29 11:00:44;;;;;;;5.97;5.47;;;9.60;91.70;;;;;;5007051;28;20252;-77
2023/01/29 11:03:21;;;;;;;7.40;5.10;;;9.80;91.50;;;;;;5028633;28;20223;-78
2023/01/29 11:05:55;;;;;;;5.75;5.18;;;10.10;91.40;;;;;;5038444;28;20945;-77
2023/01/29 11:08:27;;;;;;;5.30;4.90;;;10.30;90.90;;;;;;5033410;28;20200;-78
2023/01/29 11:11:02;;;;;;;6.00;4.82;;;10.50;90.60;;;;;;5034695;28;20227;-77
2023/01/29 11:13:38;;;;;;;5.22;4.75;;;10.50;90.70;;;;;;5031807;28;20275;-77
2023/01/29 11:16:06;;;;;;;5.07;4.57;;;10.40;90.20;;;;;;5030377;28;20712;-77
2023/01/29 11:18:55;;;;;;;4.95;4.55;;;10.10;90.40;;;;;;5038024;28;20929;-77
2023/01/29 11:21:24;;;;;;;5.50;5.00;;;9.80;90.10;;;;;;5031436;28;20260;-77
2023/01/29 11:24:04;;;;;;;4.82;4.43;;;9.70;90.70;;;;;;5018268;28;20198;-77
2023/01/29 11:26:37;;;;;;;5.00;4.60;;;9.80;90.20;;;;;;5034636;28;20746;-77
2023/01/29 11:29:26;;;;;;;5.10;4.57;;;10.00;90.40;;;;;;5015318;28;20278;-77
2023/01/29 11:31:53;;;;;;;5.05;4.65;;;10.30;90.70;;;;;;5029674;28;20218;-78
2023/01/29 11:34:23;;;;;;;6.70;4.55;;;10.60;90.20;;;;;;5037530;28;20192;-77
2023/01/29 11:36:57;;;;;;;5.20;4.70;;;10.50;89.60;;;;;;5036457;28;20246;-77
2023/01/29 11:39:26;;;;;;;5.43;4.93;;;10.50;90.20;;;;;;5034705;28;20227;-77
2023/01/29 11:41:57;;;;;;;5.30;4.90;;;10.50;90.00;;;;;;5031310;28;20287;-77
2023/01/29 11:44:31;;;;;;;5.25;4.75;;;10.80;89.90;;;;;;5032033;28;20585;-77
2023/01/29 11:47:17;;;;;;;5.50;5.00;;;10.90;89.40;;;;;;5028525;28;20248;-77
2023/01/29 11:49:46;;;;;;;5.30;4.90;;;11.10;87.50;;;;;;5028925;28;20618;-77
2023/01/29 11:52:16;;;;;;;5.35;4.85;;;11.10;87.50;;;;;;5018924;28;20291;-77
2023/01/29 11:54:47;;;;;;;4.55;4.15;;;11.20;88.10;;;;;;5031728;28;20306;-76
2023/01/29 11:57:27;;;;;;;4.80;4.40;;;11.40;88.40;;;;;;5028009;28;20257;-77
2023/01/29 11:59:59;;;;;;;4.30;4.00;;;11.60;86.90;;;;;;5027823;28;20238;-77
2023/01/29 12:02:34;;;;;;;5.20;4.60;;;11.60;86.60;;;;;;5035219;28;20220;-77
2023/01/29 12:05:06;;;;;;;4.40;3.92;;;11.20;85.40;;;;;;5026607;28;20731;-76
2023/01/29 12:07:33;;;;;;;4.78;4.28;;;11.00;85.90;;;;;;5030967;28;20794;-78
2023/01/29 12:10:02;;;;;;;4.80;4.40;;;11.00;85.80;;;;;;5032210;28;20350;-78
2023/01/29 12:12:37;;;;;;;4.90;4.50;;;10.80;83.20;;;;;;5028399;28;20201;-75
2023/01/29 12:15:16;;;;;;;4.82;4.43;;;10.70;85.70;;;;;;5024811;28;20273;-75
2023/01/29 12:17:46;;;;;;;5.13;4.68;;;10.80;86.40;;;;;;5020600;28;20222;-75
2023/01/29 12:20:18;;;;;;;5.40;4.53;;;10.70;86.00;;;;;;5008041;28;20305;-75
2023/01/29 12:22:52;;;;;;;4.80;4.40;;;10.90;85.70;;;;;;5031651;28;20302;-75
2023/01/29 12:25:24;;;;;;;4.78;4.38;;;11.10;86.80;;;;;;5032512;28;20306;-75
2023/01/29 12:28:00;;;;;;;5.03;4.57;;;11.20;84.80;;;;;;5023791;28;20307;-77
2023/01/29 12:30:36;;;;;;;5.22;4.82;;;10.80;82.70;;;;;;5028974;28;20736;-76
2023/01/29 12:33:10;;;;;;;4.35;3.95;;;10.50;84.50;;;;;;5011129;28;20206;-76
2023/01/29 12:35:42;;;;;;;4.55;4.20;;;10.20;85.20;;;;;;5011098;28;20222;-76
2023/01/29 12:38:17;;;;;;;4.32;4.03;;;10.00;86.20;;;;;;5007218;28;20229;-76
2023/01/29 12:40:49;;;;;;;5.38;4.88;;;10.10;86.50;;;;;;5029855;28;20309;-76
2023/01/29 12:43:18;;;;;;;4.45;4.05;;;10.10;86.10;;;;;;5021504;28;20334;-76
2023/01/29 12:45:52;;;;;;;4.57;4.18;;;10.20;86.20;;;;;;5026886;28;20769;-76
2023/01/29 12:48:23;;;;;;;5.28;4.78;;;10.40;86.60;;;;;;5009188;28;20199;-76
2023/01/29 12:50:52;;;;;;;5.07;4.60;;;10.20;83.70;;;;;;5033029;28;20314;-76
2023/01/29 12:53:26;;;;;;;4.82;4.43;;;9.90;85.10;;;;;;5013108;28;20222;-76
2023/01/29 12:55:58;;;;;;;4.80;4.40;;;9.70;86.30;;;;;;5025532;28;20219;-76
2023/01/29 12:58:30;;;;;;;5.28;4.80;;;9.80;86.50;;;;;;5010322;28;20200;-75
2023/01/29 13:01:05;;;;;;;5.47;5.00;;;9.70;86.10;;;;;;5031196;28;20310;-76
2023/01/29 13:03:40;;;;;;;5.10;4.60;;;9.60;86.50;;;;;;5030860;28;20334;-76
2023/01/29 13:06:11;;;;;;;4.90;4.50;;;9.70;86.50;;;;;;5033898;28;20246;-76
2023/01/29 13:08:43;;;;;;;4.75;4.35;;;9.90;87.40;;;;;;5037290;28;20294;-76
2023/01/29 13:11:18;;;;;;;5.10;4.70;;;9.90;86.50;;;;;;5020479;28;20294;-76
2023/01/29 13:13:51;;;;;;;4.90;4.50;;;9.60;85.20;;;;;;5026679;28;20297;-75
2023/01/29 13:16:22;;;;;;;4.53;4.13;;;9.40;86.90;;;;;;4994249;28;20219;-76
2023/01/29 13:18:54;;;;;;;4.85;4.45;;;9.10;87.00;;;;;;5025871;28;20195;-74
2023/01/29 13:21:26;;;;;;;5.60;5.10;;;9.00;87.10;;;;;;5012830;28;20656;-75
2023/01/29 13:23:56;;;;;;;5.03;4.63;;;9.10;85.90;;;;;;5033569;28;20198;-75
2023/01/29 13:26:25;;;;;;;5.65;5.18;;;9.30;87.20;;;;;;5036141;28;20306;-76
2023/01/29 13:28:52;;;;;;;4.45;4.05;;;9.60;86.50;;;;;;5036956;28;20632;-76
2023/01/29 13:31:33;;;;;;;4.88;4.47;;;9.70;86.10;;;;;;5033213;28;20301;-76
2023/01/29 13:34:13;;;;;;;4.93;4.53;;;9.30;84.50;;;;;;5013653;28;20620;-76
2023/01/29 13:36:44;;;;;;;4.85;4.22;;;9.10;85.90;;;;;;5037187;28;20927;-76